Ely Municipal Airport Ely US
ICAO: KELO
IATA: ELO
Category: Medium
Scheduled Services: No

Elevation: 1456 ft
TransAlt. 18000 ft.

Airport Communications:
AWOS 3:132.025
PRINCETON RDO:109.6
CTAF/UNICOM:122.8

KELO Zoom In..

Runways:

(A) RW 12 length 5596 ft width 100 ft
---- / hdg 120

(B) RW 30 length 5596 ft width 100 ft
---- / hdg 300

Location; KELO
Day. 11 / Time. 11.55 Zulu
* Altimeter: 29.85
* Temperature: 13° c. 55.4°f.
* Wind from: 210° Speed 04 kn.
Dewpoint: 07° c.
Visibility: 10 Statute Miles.
Clouds: Clear (automated report).

KELO 111155Z AUTO 21004KT 10SM CLR 13/07 A2985 RMK AO2

Going to: --> -->


Wind From 210°
Speed 04 kn.

 
 
jpsmedia worldairports.se 2020   terms of use